X  Lukk Metar værinformasjon om luftfart     ENRY Moss Airport, Rygge
Temperatur
15°C Temperatur
10°C Duggpunkt
72% Luftfuktighet



Vind
6 M/S
13 MPT
21 KM/T
11 KNP



210°
SSV
Nåværende forhold

For det meste spredte skyer For det meste spredte skyer
Trykk 1006.77 (hPa) - 29.73 (inHg)
Sikt 6 (mil) - 9.7 (km)
Flyplass
Flyplass-kode ENRY

Plassering: Moss Airport, Rygge
Avstand: 12 (km)

Metar:
ENRY 121720Z 21011KT 9999 SCT021TCU BKN065 15/10 Q1007

Tid: 12-06-2024 19:20 CEST